Time;durP1;ratioP1;P1;durP2;ratioP2;P2;SDS_P1;SDS_P2;PMS_P1;PMS_P2;Temp;Humidity;BMP_temperature;BMP_pressure;BME280_temperature;BME280_humidity;BME280_pressure;Samples;Min_cycle;Max_cycle;Signal;HPM_P1;HPM_P2
2021/12/19 00:02:28;;;;;;;14.80;7.25;;;10.50;99.90;;;;;;5087766;28;20307;-63
2021/12/19 00:10:20;;;;;;;12.05;6.53;;;10.50;99.90;;;;;;5079188;28;21034;-63
2021/12/19 00:12:47;;;;;;;16.52;10.48;;;10.50;99.90;;;;;;5081163;28;20215;-63
2021/12/19 00:15:14;;;;;;;8.60;5.00;;;10.40;99.90;;;;;;5078396;28;20207;-63
2021/12/19 00:17:41;;;;;;;12.93;6.70;;;10.50;99.90;;;;;;5090937;28;20222;-63
2021/12/19 00:20:10;;;;;;;13.80;6.10;;;10.50;99.90;;;;;;5090815;28;20231;-63
2021/12/19 00:22:37;;;;;;;16.80;11.20;;;10.50;99.90;;;;;;5091975;28;20227;-63
2021/12/19 00:25:05;;;;;;;8.70;4.55;;;10.50;99.90;;;;;;5086529;28;20215;-63
2021/12/19 00:27:33;;;;;;;11.45;7.63;;;10.40;99.90;;;;;;5092253;28;20227;-63
2021/12/19 00:30:00;;;;;;;9.23;4.75;;;10.50;99.90;;;;;;5091226;28;20228;-63
2021/12/19 00:32:26;;;;;;;77.72;45.75;;;10.50;99.90;;;;;;5091514;28;20230;-69
2021/12/19 00:34:53;;;;;;;35.47;22.92;;;10.40;99.90;;;;;;5091370;28;20261;-69
2021/12/19 00:37:23;;;;;;;18.33;12.70;;;10.50;99.90;;;;;;5090856;28;20215;-69
2021/12/19 00:39:50;;;;;;;52.05;34.80;;;10.50;99.90;;;;;;5091417;28;20226;-68
2021/12/19 00:42:30;;;;;;;26.10;17.15;;;10.40;99.90;;;;;;5090339;28;20233;-69
2021/12/19 00:45:01;;;;;;;42.92;28.42;;;10.30;99.90;;;;;;5095773;28;20229;-69
2021/12/19 00:47:28;;;;;;;40.25;28.92;;;10.40;99.90;;;;;;5094484;28;20990;-68
2021/12/19 00:49:56;;;;;;;57.47;37.78;;;10.30;99.90;;;;;;5092615;28;20228;-69
2021/12/19 00:52:24;;;;;;;41.58;27.88;;;10.40;99.90;;;;;;5093724;28;20227;-69
2021/12/19 00:54:51;;;;;;;375.55;215.23;;;10.40;99.90;;;;;;5089506;28;20238;-68
2021/12/19 00:57:18;;;;;;;32.38;23.60;;;10.70;99.90;;;;;;5090730;28;20638;-63
2021/12/19 00:59:45;;;;;;;15.10;11.73;;;10.80;99.90;;;;;;5093174;28;20223;-63
2021/12/19 01:02:12;;;;;;;9.13;5.63;;;10.80;99.90;;;;;;5090121;28;20233;-62
2021/12/19 01:04:39;;;;;;;8.18;5.40;;;10.70;99.90;;;;;;5090888;28;20220;-62
2021/12/19 01:07:05;;;;;;;10.77;5.78;;;10.70;99.90;;;;;;5093870;28;20219;-62
2021/12/19 01:09:34;;;;;;;6.50;5.32;;;10.70;99.90;;;;;;5095006;28;20538;-62
2021/12/19 01:12:01;;;;;;;5.78;4.38;;;10.70;99.90;;;;;;5095124;28;20232;-63
2021/12/19 01:14:28;;;;;;;10.77;6.80;;;10.60;99.90;;;;;;5091012;28;20657;-63
2021/12/19 01:16:55;;;;;;;11.60;8.20;;;10.60;99.90;;;;;;5093810;28;20219;-62
2021/12/19 01:19:23;;;;;;;10.85;7.55;;;10.60;99.90;;;;;;5099192;28;20220;-62
2021/12/19 01:21:51;;;;;;;6.88;5.72;;;10.60;99.90;;;;;;5089578;28;20601;-62
2021/12/19 01:24:18;;;;;;;8.13;5.50;;;10.50;99.90;;;;;;5090551;28;20218;-62
2021/12/19 01:26:46;;;;;;;6.82;5.03;;;10.50;99.90;;;;;;5094970;28;20219;-62
2021/12/19 01:29:14;;;;;;;8.00;5.97;;;10.40;99.90;;;;;;5094214;28;20315;-62
2021/12/19 01:31:41;;;;;;;8.60;6.00;;;10.40;99.90;;;;;;5094777;28;20655;-63
2021/12/19 01:34:12;;;;;;;8.63;5.70;;;10.40;99.90;;;;;;5094620;28;20678;-62
2021/12/19 01:36:39;;;;;;;9.27;6.55;;;10.40;99.90;;;;;;5091760;28;20570;-63
2021/12/19 01:39:06;;;;;;;6.40;5.80;;;10.40;99.90;;;;;;5083737;28;20219;-63
2021/12/19 01:41:33;;;;;;;12.57;7.13;;;10.40;99.90;;;;;;5091647;28;20969;-62
2021/12/19 01:44:01;;;;;;;9.82;7.65;;;10.30;99.90;;;;;;5092605;28;20572;-62
2021/12/19 01:46:28;;;;;;;10.00;6.47;;;10.20;99.90;;;;;;5084423;28;20220;-62
2021/12/19 01:48:55;;;;;;;8.25;7.35;;;10.20;99.90;;;;;;5087391;28;20661;-63
2021/12/19 01:51:22;;;;;;;10.27;7.70;;;10.20;99.90;;;;;;5092770;28;20237;-62
2021/12/19 01:53:49;;;;;;;7.97;6.18;;;10.20;99.90;;;;;;5094669;28;20299;-62
2021/12/19 01:56:16;;;;;;;14.25;9.20;;;10.20;99.90;;;;;;5092937;28;20234;-62
2021/12/19 01:58:46;;;;;;;10.48;7.47;;;10.10;99.90;;;;;;5093590;28;20224;-62
2021/12/19 02:01:15;;;;;;;11.48;8.85;;;10.10;99.90;;;;;;5087293;28;20281;-62
2021/12/19 02:03:42;;;;;;;9.40;6.22;;;10.20;99.90;;;;;;5092180;28;20242;-62
2021/12/19 02:06:08;;;;;;;8.27;6.65;;;10.20;99.90;;;;;;5094272;28;20230;-62
2021/12/19 02:08:35;;;;;;;9.43;7.25;;;10.20;99.90;;;;;;5093566;28;20220;-62
2021/12/19 02:11:02;;;;;;;7.88;6.65;;;10.20;99.90;;;;;;5094364;28;20238;-62
2021/12/19 02:13:29;;;;;;;31.13;20.15;;;10.20;99.90;;;;;;5093433;28;20220;-63
2021/12/19 02:15:57;;;;;;;21.55;12.45;;;10.20;99.90;;;;;;5094222;28;20253;-62
2021/12/19 02:18:25;;;;;;;8.85;5.63;;;10.20;99.90;;;;;;5093751;28;20234;-63
2021/12/19 02:20:55;;;;;;;38.30;23.35;;;10.10;99.90;;;;;;5094206;28;20228;-62
2021/12/19 02:23:25;;;;;;;13.40;8.02;;;10.20;99.90;;;;;;5093275;28;20242;-62
2021/12/19 02:25:53;;;;;;;7.47;5.80;;;10.20;99.90;;;;;;5093909;28;20285;-63
2021/12/19 02:28:21;;;;;;;5.35;4.30;;;10.20;99.90;;;;;;5093449;28;20224;-63
2021/12/19 02:30:49;;;;;;;7.22;6.10;;;10.30;99.90;;;;;;5094081;28;20259;-62
2021/12/19 02:33:21;;;;;;;11.27;9.13;;;10.20;99.90;;;;;;5092898;28;20666;-62
2021/12/19 02:35:55;;;;;;;18.52;7.97;;;10.10;99.90;;;;;;5085605;28;20212;-62
2021/12/19 02:39:10;;;;;;;15.88;10.52;;;10.00;99.90;;;;;;5090510;28;20289;-62
2021/12/19 02:49:35;;;;;;;5.60;3.75;;;10.10;99.90;;;;;;5089654;28;20276;-63
2021/12/19 02:52:03;;;;;;;7.53;5.53;;;10.10;99.90;;;;;;5093171;28;20982;-62
2021/12/19 02:54:31;;;;;;;5.90;3.67;;;10.10;99.90;;;;;;5093702;28;20220;-63
2021/12/19 02:56:59;;;;;;;8.02;6.60;;;10.10;99.90;;;;;;5084939;28;20308;-63
2021/12/19 02:59:26;;;;;;;5.80;3.17;;;10.20;99.90;;;;;;5091261;28;20231;-62
2021/12/19 03:01:52;;;;;;;8.82;5.03;;;10.20;99.90;;;;;;5092964;28;20468;-62
2021/12/19 03:04:19;;;;;;;4.75;3.13;;;10.10;99.90;;;;;;5093098;28;20270;-63
2021/12/19 03:06:49;;;;;;;5.82;2.95;;;10.20;99.90;;;;;;5091907;28;20228;-63
2021/12/19 03:09:27;;;;;;;8.40;4.25;;;10.10;99.90;;;;;;5092998;28;20226;-62
2021/12/19 03:20:12;;;;;;;4.68;4.00;;;10.10;99.90;;;;;;5090350;28;20937;-63
2021/12/19 03:22:39;;;;;;;8.77;5.05;;;10.10;99.90;;;;;;5099427;28;20233;-63
2021/12/19 03:25:06;;;;;;;2.63;2.15;;;10.10;99.90;;;;;;5091923;28;20229;-63
2021/12/19 03:27:34;;;;;;;3.55;2.65;;;10.10;99.90;;;;;;5093175;28;20364;-62
2021/12/19 03:30:01;;;;;;;3.25;2.03;;;10.00;99.90;;;;;;5092198;28;20238;-63
2021/12/19 03:32:28;;;;;;;7.22;4.05;;;10.00;99.90;;;;;;5092860;28;20258;-62
2021/12/19 03:34:55;;;;;;;3.60;2.38;;;10.00;99.90;;;;;;5093682;28;20227;-63
2021/12/19 03:37:22;;;;;;;4.90;3.10;;;10.00;99.90;;;;;;5081702;28;20606;-63
2021/12/19 03:40:07;;;;;;;5.78;5.18;;;10.00;99.90;;;;;;5092286;28;20224;-63
2021/12/19 03:42:38;;;;;;;5.72;2.80;;;10.00;99.90;;;;;;5092841;28;20212;-62
2021/12/19 03:45:05;;;;;;;5.32;3.15;;;10.10;99.90;;;;;;5092011;28;20224;-62
2021/12/19 03:47:32;;;;;;;6.28;3.60;;;10.10;99.90;;;;;;5079666;28;20220;-62
2021/12/19 03:49:59;;;;;;;7.13;4.88;;;10.00;99.90;;;;;;5078878;28;20228;-63
2021/12/19 03:52:26;;;;;;;4.43;3.45;;;10.10;99.90;;;;;;5091764;28;20215;-63
2021/12/19 03:54:53;;;;;;;3.05;2.40;;;10.10;99.90;;;;;;5092242;28;20242;-62
2021/12/19 03:57:20;;;;;;;10.18;4.95;;;10.10;99.90;;;;;;5092190;28;20225;-62
2021/12/19 03:59:49;;;;;;;13.07;8.38;;;10.10;99.90;;;;;;5092129;28;20539;-63
2021/12/19 04:02:23;;;;;;;4.75;4.25;;;10.10;99.90;;;;;;5082276;28;20221;-63
2021/12/19 04:04:50;;;;;;;6.00;4.13;;;10.10;99.90;;;;;;5092610;28;20314;-62
2021/12/19 04:07:18;;;;;;;4.38;3.95;;;10.10;99.90;;;;;;5091791;28;20273;-62
2021/12/19 04:09:44;;;;;;;7.25;4.13;;;10.10;99.90;;;;;;5092326;28;20220;-62
2021/12/19 04:12:11;;;;;;;4.50;2.70;;;10.10;99.90;;;;;;5091927;28;20224;-62
2021/12/19 04:14:38;;;;;;;6.63;4.15;;;10.10;99.90;;;;;;5092399;28;20251;-62
2021/12/19 04:17:06;;;;;;;6.95;5.35;;;10.10;99.90;;;;;;5086996;28;20219;-62
2021/12/19 04:19:33;;;;;;;6.30;3.22;;;10.10;99.90;;;;;;5096180;28;20715;-62
2021/12/19 04:22:00;;;;;;;6.53;4.18;;;10.20;99.90;;;;;;5095915;28;20241;-62
2021/12/19 04:24:28;;;;;;;5.93;4.47;;;10.20;99.90;;;;;;5095828;28;20723;-62
2021/12/19 04:26:55;;;;;;;10.15;7.47;;;10.30;99.90;;;;;;5095935;28;20223;-61
2021/12/19 04:29:23;;;;;;;4.10;3.65;;;10.30;99.90;;;;;;5096142;28;20229;-62
2021/12/19 04:31:50;;;;;;;10.80;6.75;;;10.30;99.90;;;;;;5095665;28;20231;-62
2021/12/19 04:34:19;;;;;;;6.22;5.30;;;10.30;99.90;;;;;;5094988;28;20219;-62
2021/12/19 04:36:54;;;;;;;7.55;5.55;;;10.30;99.90;;;;;;5091547;28;20226;-62
2021/12/19 04:39:29;;;;;;;11.40;6.07;;;10.20;99.90;;;;;;5082761;28;20239;-62
2021/12/19 04:50:54;;;;;;;8.15;5.30;;;10.20;99.90;;;;;;5096199;28;20216;-62
2021/12/19 04:53:22;;;;;;;7.75;5.60;;;10.20;99.90;;;;;;5089466;28;20238;-63
2021/12/19 05:01:54;;;;;;;13.27;5.70;;;10.20;99.90;;;;;;5053622;28;20313;-63
2021/12/19 05:05:06;;;;;;;10.43;6.68;;;10.20;99.90;;;;;;5094808;28;20301;-62
2021/12/19 05:15:48;;;;;;;7.78;4.65;;;10.10;99.90;;;;;;5095569;28;20230;-61
2021/12/19 05:18:15;;;;;;;7.00;5.63;;;10.10;99.90;;;;;;5095287;28;20565;-62
2021/12/19 05:20:51;;;;;;;7.88;4.68;;;10.10;99.90;;;;;;5094928;28;20247;-62
2021/12/19 05:23:25;;;;;;;6.50;4.43;;;10.00;99.90;;;;;;5095371;28;20227;-62
2021/12/19 05:25:53;;;;;;;6.25;3.88;;;10.00;99.90;;;;;;5094653;28;20231;-62
2021/12/19 05:28:20;;;;;;;11.73;7.65;;;10.00;99.90;;;;;;5095029;28;20220;-62
2021/12/19 05:30:47;;;;;;;7.00;3.58;;;10.10;99.90;;;;;;5093660;28;20245;-62
2021/12/19 05:33:14;;;;;;;12.05;6.50;;;10.00;99.90;;;;;;5094953;28;20220;-62
2021/12/19 05:36:03;;;;;;;7.03;5.22;;;10.10;99.90;;;;;;5087618;28;20212;-62
2021/12/19 05:45:11;;;;;;;8.48;4.28;;;10.20;99.90;;;;;;5095507;28;20254;-61
2021/12/19 05:47:01;;;;;;;6.78;4.95;;;10.10;99.90;;;;;;5077834;28;20224;-62
2021/12/19 05:49:29;;;;;;;10.27;5.35;;;10.10;99.90;;;;;;5090441;28;20234;-62
2021/12/19 05:51:57;;;;;;;7.28;4.47;;;10.10;99.90;;;;;;5094440;28;20224;-62
2021/12/19 05:54:25;;;;;;;8.82;3.80;;;10.20;99.90;;;;;;5094563;28;20223;-62
2021/12/19 05:56:52;;;;;;;4.45;3.30;;;10.20;99.90;;;;;;5094451;28;20227;-62
2021/12/19 05:59:19;;;;;;;4.70;3.40;;;10.20;99.90;;;;;;5094456;28;20247;-62
2021/12/19 06:01:46;;;;;;;6.18;3.45;;;10.20;99.90;;;;;;5094253;28;20230;-62
2021/12/19 06:04:13;;;;;;;5.65;3.97;;;10.20;99.90;;;;;;5094422;28;20741;-62
2021/12/19 06:06:40;;;;;;;4.28;3.22;;;10.20;99.90;;;;;;5094399;28;20223;-62
2021/12/19 06:09:07;;;;;;;11.95;4.38;;;10.20;99.90;;;;;;5093843;28;20223;-62
2021/12/19 06:11:35;;;;;;;6.05;4.28;;;10.10;99.90;;;;;;5094692;28;20221;-62
2021/12/19 06:14:02;;;;;;;6.15;5.15;;;10.20;99.90;;;;;;5093845;28;20229;-62
2021/12/19 06:16:30;;;;;;;8.50;3.80;;;10.20;99.90;;;;;;5094295;28;20566;-62
2021/12/19 06:18:57;;;;;;;4.13;2.85;;;10.20;99.90;;;;;;5093874;28;20223;-63
2021/12/19 06:21:24;;;;;;;4.82;3.00;;;10.20;99.90;;;;;;5094072;28;20253;-63
2021/12/19 06:23:51;;;;;;;6.38;3.75;;;10.30;99.90;;;;;;5093675;28;20530;-63
2021/12/19 06:26:17;;;;;;;9.55;4.25;;;10.30;99.90;;;;;;5094044;28;20220;-63
2021/12/19 06:28:46;;;;;;;4.63;2.80;;;10.30;99.90;;;;;;5094089;28;20241;-63
2021/12/19 06:31:13;;;;;;;5.60;2.90;;;10.30;99.90;;;;;;5093677;28;21059;-63
2021/12/19 06:33:40;;;;;;;8.25;5.55;;;10.30;99.90;;;;;;5094054;28;20230;-63
2021/12/19 06:36:06;;;;;;;5.97;2.70;;;10.20;99.90;;;;;;5082150;28;20224;-63
2021/12/19 06:38:33;;;;;;;7.43;3.72;;;10.20;99.90;;;;;;5092729;28;20216;-63
2021/12/19 06:41:00;;;;;;;5.97;2.40;;;10.10;99.90;;;;;;5093134;28;20697;-63
2021/12/19 06:43:30;;;;;;;5.15;3.30;;;10.20;99.90;;;;;;5093838;28;20220;-63
2021/12/19 06:45:58;;;;;;;5.70;3.60;;;10.20;99.90;;;;;;5093294;28;20219;-63
2021/12/19 06:48:25;;;;;;;5.18;3.72;;;10.10;99.90;;;;;;5093241;28;20228;-63
2021/12/19 06:50:52;;;;;;;11.82;8.27;;;10.10;99.90;;;;;;5093249;28;20224;-64
2021/12/19 06:53:19;;;;;;;4.97;4.20;;;10.10;99.90;;;;;;5093579;28;20226;-62
2021/12/19 06:55:46;;;;;;;4.88;3.13;;;10.00;99.90;;;;;;5093538;28;20219;-62
2021/12/19 06:58:13;;;;;;;4.63;2.72;;;10.00;99.90;;;;;;5092894;28;20741;-62
2021/12/19 07:00:40;;;;;;;4.15;3.28;;;10.00;99.90;;;;;;5093417;28;20225;-62
2021/12/19 07:03:09;;;;;;;3.88;1.90;;;10.00;99.90;;;;;;5093089;28;20324;-62
2021/12/19 07:05:37;;;;;;;5.30;3.33;;;10.00;99.90;;;;;;5093139;28;20230;-62
2021/12/19 07:08:04;;;;;;;5.03;2.50;;;10.00;99.90;;;;;;5092590;28;20555;-61
2021/12/19 07:10:31;;;;;;;6.93;2.60;;;10.00;99.90;;;;;;5093160;28;20224;-62
2021/12/19 07:12:58;;;;;;;4.50;3.40;;;10.00;99.90;;;;;;5092786;28;20219;-62
2021/12/19 07:15:25;;;;;;;3.53;2.20;;;10.00;99.90;;;;;;5093541;28;20242;-62
2021/12/19 07:17:52;;;;;;;3.15;1.70;;;10.00;99.90;;;;;;5092652;28;20235;-62
2021/12/19 07:20:20;;;;;;;4.88;3.22;;;10.00;99.90;;;;;;5093094;28;20235;-62
2021/12/19 07:22:47;;;;;;;9.15;2.90;;;10.00;99.90;;;;;;5092915;28;20584;-62
2021/12/19 07:25:14;;;;;;;2.83;2.35;;;10.00;99.90;;;;;;5086641;28;20229;-62
2021/12/19 07:27:41;;;;;;;4.80;2.20;;;10.00;99.90;;;;;;5089205;28;22665;-62
2021/12/19 07:30:09;;;;;;;5.65;3.17;;;10.00;99.90;;;;;;5092422;28;20239;-62
2021/12/19 07:32:37;;;;;;;4.50;3.42;;;10.00;99.90;;;;;;5092727;28;20219;-62
2021/12/19 07:35:07;;;;;;;3.95;2.70;;;10.00;99.90;;;;;;5090145;28;20250;-62
2021/12/19 07:37:36;;;;;;;6.22;3.90;;;10.00;99.90;;;;;;5089797;28;20685;-62
2021/12/19 07:40:11;;;;;;;5.18;2.60;;;10.00;99.90;;;;;;5092171;28;20233;-62
2021/12/19 07:42:38;;;;;;;4.32;2.70;;;9.90;99.90;;;;;;5092658;28;20227;-62
2021/12/19 07:45:06;;;;;;;5.13;3.13;;;9.90;99.90;;;;;;5092385;28;20234;-62
2021/12/19 07:47:33;;;;;;;17.77;7.72;;;9.90;99.90;;;;;;5092370;28;20230;-62
2021/12/19 07:50:00;;;;;;;3.55;2.45;;;9.90;99.90;;;;;;5092004;28;20231;-62
2021/12/19 07:52:27;;;;;;;4.80;3.63;;;9.90;99.90;;;;;;5091920;28;20685;-62
2021/12/19 07:54:55;;;;;;;3.30;3.00;;;9.90;99.90;;;;;;5092151;28;20226;-61
2021/12/19 07:57:22;;;;;;;6.03;3.60;;;9.90;99.90;;;;;;5092460;28;20582;-62
2021/12/19 07:59:48;;;;;;;3.47;3.15;;;9.80;99.90;;;;;;5092491;28;20219;-62
2021/12/19 08:02:15;;;;;;;3.00;2.42;;;9.70;99.90;;;;;;5083122;28;20227;-62
2021/12/19 08:04:42;;;;;;;10.15;6.70;;;9.80;99.90;;;;;;5092305;28;20526;-62
2021/12/19 08:07:11;;;;;;;7.75;4.18;;;9.70;99.90;;;;;;5091810;28;20681;-62
2021/12/19 08:09:47;;;;;;;5.32;4.82;;;9.70;99.90;;;;;;5092200;28;20542;-62
2021/12/19 08:12:14;;;;;;;4.63;3.88;;;9.70;99.90;;;;;;5092119;28;20587;-62
2021/12/19 08:14:41;;;;;;;6.47;3.50;;;9.70;99.90;;;;;;5092327;28;20224;-62
2021/12/19 08:17:07;;;;;;;6.18;4.55;;;9.70;99.90;;;;;;5091759;28;20223;-62
2021/12/19 08:19:34;;;;;;;7.60;3.83;;;9.70;99.90;;;;;;5092150;28;20223;-62
2021/12/19 08:22:02;;;;;;;5.05;3.05;;;9.70;99.90;;;;;;5091892;28;20234;-62
2021/12/19 08:24:29;;;;;;;2.63;2.05;;;9.70;99.90;;;;;;5092211;28;20577;-62
2021/12/19 08:26:56;;;;;;;4.35;2.42;;;9.80;99.90;;;;;;5082970;28;20246;-62
2021/12/19 08:29:24;;;;;;;4.55;3.28;;;9.80;99.90;;;;;;5091962;28;20216;-62
2021/12/19 08:31:51;;;;;;;3.85;2.33;;;9.70;99.90;;;;;;5092295;28;20237;-62
2021/12/19 08:34:18;;;;;;;4.03;2.60;;;9.70;99.90;;;;;;5091711;28;20227;-62
2021/12/19 08:36:44;;;;;;;3.08;2.00;;;9.80;99.90;;;;;;5086887;28;20716;-62
2021/12/19 08:39:12;;;;;;;2.63;1.63;;;9.70;99.90;;;;;;5091462;28;20223;-62
2021/12/19 08:41:39;;;;;;;1.98;1.80;;;9.70;99.90;;;;;;5092405;28;20223;-62
2021/12/19 08:44:06;;;;;;;2.70;1.98;;;9.60;99.90;;;;;;5091643;28;20228;-62
2021/12/19 08:46:35;;;;;;;4.63;1.85;;;9.60;99.90;;;;;;5075196;28;20220;-62
2021/12/19 08:49:02;;;;;;;4.63;2.40;;;9.60;99.90;;;;;;5085080;28;20306;-62
2021/12/19 08:51:29;;;;;;;7.03;2.63;;;9.60;99.90;;;;;;5091906;28;20227;-62
2021/12/19 08:53:56;;;;;;;4.35;2.58;;;9.60;99.90;;;;;;5091766;28;20215;-62
2021/12/19 08:56:23;;;;;;;3.85;1.60;;;9.60;99.90;;;;;;5091703;28;20553;-62
2021/12/19 08:58:50;;;;;;;1.90;1.42;;;9.70;99.90;;;;;;5091849;28;20230;-62
2021/12/19 09:01:17;;;;;;;3.60;2.55;;;9.70;99.90;;;;;;5091268;28;20554;-62
2021/12/19 09:03:45;;;;;;;2.20;2.00;;;9.60;99.90;;;;;;5092339;28;20613;-62
2021/12/19 09:06:12;;;;;;;3.85;2.28;;;9.60;99.90;;;;;;5095072;28;20230;-62
2021/12/19 09:08:39;;;;;;;4.85;2.70;;;9.50;99.90;;;;;;5095553;28;20245;-62
2021/12/19 09:11:06;;;;;;;3.45;1.58;;;9.50;99.90;;;;;;5095212;28;20232;-62
2021/12/19 09:13:34;;;;;;;3.10;1.98;;;9.60;99.90;;;;;;5095615;28;20310;-62
2021/12/19 09:16:01;;;;;;;3.25;2.20;;;9.60;99.90;;;;;;5095076;28;20250;-62
2021/12/19 09:18:29;;;;;;;2.75;1.70;;;9.60;99.90;;;;;;5095375;28;20215;-62
2021/12/19 09:20:58;;;;;;;3.72;1.30;;;9.60;99.90;;;;;;5095370;28;20716;-62
2021/12/19 09:23:25;;;;;;;2.50;1.50;;;9.60;99.90;;;;;;5094557;28;20675;-62
2021/12/19 09:25:52;;;;;;;2.28;1.50;;;9.60;99.90;;;;;;5095372;28;20693;-62
2021/12/19 09:28:19;;;;;;;4.07;1.95;;;9.50;99.90;;;;;;5094544;28;20239;-62
2021/12/19 09:30:46;;;;;;;5.18;2.47;;;9.50;99.90;;;;;;5095395;28;20234;-62
2021/12/19 09:33:14;;;;;;;2.35;2.15;;;9.50;99.90;;;;;;5094625;28;20229;-62
2021/12/19 09:35:40;;;;;;;2.97;1.52;;;9.50;99.90;;;;;;5087582;28;20225;-62
2021/12/19 09:38:09;;;;;;;2.50;1.42;;;9.60;99.90;;;;;;5092809;28;20243;-62
2021/12/19 09:40:38;;;;;;;14.65;8.18;;;9.60;99.90;;;;;;5094790;28;20223;-62
2021/12/19 09:43:10;;;;;;;3.67;2.60;;;9.50;99.90;;;;;;5094462;28;20574;-61
2021/12/19 09:45:37;;;;;;;5.00;3.65;;;9.60;99.90;;;;;;5094572;28;20231;-62
2021/12/19 09:48:04;;;;;;;5.05;2.85;;;9.50;99.90;;;;;;5085536;28;20223;-61
2021/12/19 09:50:31;;;;;;;6.45;3.20;;;9.50;99.90;;;;;;5095018;28;20234;-62
2021/12/19 09:52:59;;;;;;;5.00;2.83;;;9.50;99.90;;;;;;5094693;28;20696;-62
2021/12/19 09:55:28;;;;;;;3.67;2.00;;;9.60;99.90;;;;;;5094074;28;20729;-62
2021/12/19 09:57:57;;;;;;;4.60;2.22;;;9.60;99.90;;;;;;5094232;28;20246;-62
2021/12/19 10:00:24;;;;;;;2.40;1.80;;;9.60;99.90;;;;;;5094319;28;20235;-62
2021/12/19 10:02:51;;;;;;;2.80;2.22;;;9.60;99.90;;;;;;5094655;28;20556;-62
2021/12/19 10:05:20;;;;;;;6.78;2.10;;;9.60;99.90;;;;;;5093519;28;20318;-62
2021/12/19 10:07:50;;;;;;;3.03;2.65;;;9.60;99.90;;;;;;5081600;28;20298;-62
2021/12/19 10:10:25;;;;;;;4.38;2.60;;;9.70;99.90;;;;;;5080713;28;20315;-62
2021/12/19 10:12:57;;;;;;;3.38;1.75;;;9.70;99.90;;;;;;5094555;28;20233;-62
2021/12/19 10:15:29;;;;;;;2.72;2.53;;;9.70;99.90;;;;;;5089626;28;20258;-62
2021/12/19 10:18:05;;;;;;;3.70;2.20;;;9.70;99.90;;;;;;5094283;28;20224;-62
2021/12/19 10:20:48;;;;;;;3.60;2.22;;;9.70;99.90;;;;;;5094117;28;20230;-62
2021/12/19 10:23:18;;;;;;;7.40;2.65;;;9.70;99.90;;;;;;5093796;28;20227;-62
2021/12/19 10:25:45;;;;;;;3.15;2.40;;;9.70;99.90;;;;;;5089484;28;20555;-62
2021/12/19 10:28:13;;;;;;;3.92;2.22;;;9.70;99.90;;;;;;5093682;28;20233;-62
2021/12/19 10:30:46;;;;;;;6.63;3.35;;;9.70;99.90;;;;;;5094090;28;20227;-63
2021/12/19 10:33:14;;;;;;;4.18;3.70;;;9.70;99.90;;;;;;5093857;28;20280;-62
2021/12/19 10:35:44;;;;;;;6.53;3.42;;;9.80;99.90;;;;;;5080921;28;20215;-62
2021/12/19 10:38:15;;;;;;;4.72;2.45;;;9.80;99.90;;;;;;5093456;28;20219;-62
2021/12/19 10:40:45;;;;;;;2.60;2.40;;;9.80;99.90;;;;;;5093623;28;20577;-62
2021/12/19 10:43:17;;;;;;;4.30;2.45;;;9.80;99.90;;;;;;5093494;28;20246;-62
2021/12/19 10:45:47;;;;;;;4.45;2.38;;;9.80;99.90;;;;;;5093660;28;20288;-62
2021/12/19 10:48:21;;;;;;;2.50;2.08;;;9.80;99.90;;;;;;5092978;28;20570;-62
2021/12/19 10:50:51;;;;;;;7.00;5.05;;;9.80;99.90;;;;;;5093416;28;20219;-62
2021/12/19 10:53:18;;;;;;;7.90;4.70;;;9.80;99.90;;;;;;5092902;28;20237;-62
2021/12/19 10:55:48;;;;;;;8.70;6.85;;;9.80;99.90;;;;;;5093971;28;20542;-62
2021/12/19 10:58:34;;;;;;;6.35;4.75;;;9.80;99.90;;;;;;5093208;28;20319;-62
2021/12/19 11:01:07;;;;;;;5.65;4.20;;;9.80;99.90;;;;;;5090383;28;20690;-62
2021/12/19 11:03:39;;;;;;;5.95;2.97;;;9.80;99.90;;;;;;5093017;28;20219;-62
2021/12/19 11:06:29;;;;;;;3.95;2.35;;;9.80;99.90;;;;;;5093646;28;20228;-62
2021/12/19 11:08:59;;;;;;;5.40;3.35;;;9.80;99.90;;;;;;5093195;28;20222;-62
2021/12/19 11:11:41;;;;;;;6.45;3.60;;;9.80;99.90;;;;;;5092889;28;20223;-62
2021/12/19 11:14:11;;;;;;;3.58;2.80;;;9.80;99.90;;;;;;5092961;28;20238;-62
2021/12/19 11:16:38;;;;;;;4.20;3.60;;;9.80;99.90;;;;;;5093464;28;20219;-62
2021/12/19 11:19:06;;;;;;;4.95;3.08;;;9.90;99.90;;;;;;5092409;28;20228;-62
2021/12/19 11:21:35;;;;;;;5.10;3.42;;;9.90;99.90;;;;;;5093225;28;20219;-62
2021/12/19 11:24:04;;;;;;;6.35;3.35;;;9.90;99.90;;;;;;5090709;28;20234;-62
2021/12/19 11:26:31;;;;;;;3.40;3.00;;;9.80;99.90;;;;;;5088448;28;20554;-62
2021/12/19 11:28:58;;;;;;;3.33;2.90;;;9.90;99.90;;;;;;5091982;28;20223;-62
2021/12/19 11:31:31;;;;;;;4.43;3.80;;;9.90;99.90;;;;;;5092370;28;20230;-62
2021/12/19 11:34:23;;;;;;;5.47;3.10;;;9.90;99.90;;;;;;5092096;28;20239;-62
2021/12/19 11:36:56;;;;;;;5.75;2.97;;;9.90;99.90;;;;;;5092044;28;20237;-62
2021/12/19 11:39:31;;;;;;;4.28;2.95;;;9.90;99.90;;;;;;5092736;28;21010;-62
2021/12/19 11:42:03;;;;;;;5.10;2.83;;;9.90;99.90;;;;;;5092838;28;20308;-62
2021/12/19 11:44:36;;;;;;;4.10;2.70;;;9.90;99.90;;;;;;5092188;28;20632;-62
2021/12/19 11:47:10;;;;;;;6.75;3.30;;;9.80;99.90;;;;;;5084035;28;20231;-62
2021/12/19 11:49:37;;;;;;;3.83;3.38;;;9.80;99.90;;;;;;5092277;28;20214;-62
2021/12/19 11:52:25;;;;;;;3.60;2.50;;;9.80;99.90;;;;;;5092684;28;20219;-62
2021/12/19 11:55:22;;;;;;;5.53;2.95;;;9.90;99.90;;;;;;5092908;28;20233;-62
2021/12/19 11:58:22;;;;;;;3.88;2.28;;;9.90;99.90;;;;;;5078539;28;20212;-63
2021/12/19 12:00:54;;;;;;;17.40;10.70;;;9.90;99.90;;;;;;5091877;28;20223;-63
2021/12/19 12:03:25;;;;;;;6.50;4.57;;;9.90;99.90;;;;;;5092617;28;20625;-62
2021/12/19 12:05:54;;;;;;;4.47;4.05;;;9.90;99.90;;;;;;5092021;28;20227;-63
2021/12/19 12:08:22;;;;;;;5.65;4.13;;;9.90;99.90;;;;;;5092230;28;20219;-63
2021/12/19 12:11:11;;;;;;;5.28;2.42;;;9.90;99.90;;;;;;5091668;28;20234;-63
2021/12/19 12:13:40;;;;;;;7.35;3.65;;;9.90;99.90;;;;;;5086680;28;20306;-62
2021/12/19 12:16:38;;;;;;;5.68;2.97;;;9.90;99.90;;;;;;5092338;28;20219;-62
2021/12/19 12:19:07;;;;;;;4.65;2.47;;;9.90;99.90;;;;;;5091998;28;20284;-62
2021/12/19 12:21:41;;;;;;;5.90;5.28;;;10.00;99.90;;;;;;5092062;28;20219;-62
2021/12/19 12:24:15;;;;;;;7.90;4.25;;;10.00;99.90;;;;;;5091949;28;21035;-62
2021/12/19 12:26:55;;;;;;;8.05;4.97;;;10.00;99.90;;;;;;5073912;28;20584;-62
2021/12/19 12:29:22;;;;;;;7.88;6.40;;;9.90;99.90;;;;;;5086772;28;20222;-63
2021/12/19 12:31:49;;;;;;;7.90;5.85;;;9.90;99.90;;;;;;5088856;28;20940;-62
2021/12/19 12:34:18;;;;;;;5.30;4.35;;;9.90;99.90;;;;;;5091942;28;20233;-62
2021/12/19 12:36:46;;;;;;;7.20;6.05;;;9.90;99.90;;;;;;5088191;28;20238;-63
2021/12/19 12:39:17;;;;;;;11.10;9.48;;;9.90;99.90;;;;;;5092840;28;20223;-63
2021/12/19 12:41:52;;;;;;;12.55;7.47;;;9.90;99.90;;;;;;5094371;28;20219;-62
2021/12/19 12:44:22;;;;;;;6.43;5.65;;;9.90;99.90;;;;;;5095755;28;20539;-63
2021/12/19 12:46:50;;;;;;;6.57;4.82;;;9.90;99.90;;;;;;5095262;28;20231;-62
2021/12/19 12:49:20;;;;;;;4.53;3.95;;;9.90;99.90;;;;;;5095688;28;20310;-63
2021/12/19 12:51:50;;;;;;;5.93;4.50;;;9.90;99.90;;;;;;5095496;28;20223;-62
2021/12/19 12:54:21;;;;;;;4.90;3.17;;;10.00;99.90;;;;;;5095923;28;20223;-62
2021/12/19 12:56:51;;;;;;;7.50;4.57;;;10.00;99.90;;;;;;5095257;28;20219;-63
2021/12/19 12:59:20;;;;;;;6.10;3.47;;;10.00;99.90;;;;;;5092217;28;20411;-62
2021/12/19 13:01:52;;;;;;;6.70;4.88;;;10.00;99.90;;;;;;5088840;28;20551;-62
2021/12/19 13:04:22;;;;;;;7.85;6.00;;;10.00;99.90;;;;;;5095657;28;20228;-62
2021/12/19 13:06:58;;;;;;;7.78;4.63;;;10.00;99.90;;;;;;5088744;28;20228;-62
2021/12/19 13:09:34;;;;;;;4.22;3.50;;;10.00;99.90;;;;;;5095512;28;20562;-62
2021/12/19 13:12:08;;;;;;;9.57;3.30;;;9.90;99.90;;;;;;5088615;28;20684;-62
2021/12/19 13:14:37;;;;;;;4.47;2.72;;;9.80;99.90;;;;;;5095340;28;20234;-62
2021/12/19 13:17:07;;;;;;;7.65;3.45;;;9.80;99.90;;;;;;5091541;28;20314;-62
2021/12/19 13:19:49;;;;;;;6.65;4.00;;;9.90;99.90;;;;;;5095154;28;20303;-62
2021/12/19 13:22:25;;;;;;;5.68;4.05;;;9.80;99.90;;;;;;5095533;28;20229;-62
2021/12/19 13:24:54;;;;;;;9.10;4.82;;;9.90;99.90;;;;;;5092503;28;21449;-62
2021/12/19 13:27:23;;;;;;;5.72;3.17;;;9.90;99.90;;;;;;5090347;28;20458;-62
2021/12/19 13:30:06;;;;;;;6.20;4.10;;;9.90;99.90;;;;;;5094785;28;20230;-61
2021/12/19 13:32:35;;;;;;;14.60;7.03;;;9.80;99.90;;;;;;5092653;28;20251;-63
2021/12/19 13:35:06;;;;;;;9.77;6.97;;;9.80;99.90;;;;;;5092979;28;20227;-62
2021/12/19 13:37:34;;;;;;;9.60;7.32;;;9.90;99.90;;;;;;5093659;28;20669;-62
2021/12/19 13:40:13;;;;;;;11.70;5.70;;;9.90;99.90;;;;;;5094708;28;20689;-63
2021/12/19 13:42:50;;;;;;;16.13;10.85;;;9.90;99.90;;;;;;5086564;28;20229;-63
2021/12/19 13:45:37;;;;;;;6.00;4.60;;;10.00;99.90;;;;;;5094828;28;20227;-62
2021/12/19 13:48:08;;;;;;;6.28;4.00;;;10.00;99.90;;;;;;5077980;28;20669;-62
2021/12/19 13:50:47;;;;;;;8.10;4.82;;;9.90;99.90;;;;;;5090122;28;20234;-63
2021/12/19 13:53:16;;;;;;;7.32;4.93;;;9.90;99.90;;;;;;5094281;28;20507;-62